sensor_id;sensor_type;location;lat;lon;timestamp;temperature;humidity
44487;DHT22;30191;50.908;6.962;2022-07-29T00:02:13;21.90;97.50
44487;DHT22;30191;50.908;6.962;2022-07-29T00:04:38;21.90;97.50
44487;DHT22;30191;50.908;6.962;2022-07-29T00:07:04;21.90;97.60
44487;DHT22;30191;50.908;6.962;2022-07-29T00:09:31;21.90;97.60
44487;DHT22;30191;50.908;6.962;2022-07-29T00:11:59;21.90;97.70
44487;DHT22;30191;50.908;6.962;2022-07-29T00:14:26;21.90;97.80
44487;DHT22;30191;50.908;6.962;2022-07-29T00:16:51;21.90;97.80
44487;DHT22;30191;50.908;6.962;2022-07-29T00:19:17;21.90;97.80
44487;DHT22;30191;50.908;6.962;2022-07-29T00:21:43;21.90;97.70
44487;DHT22;30191;50.908;6.962;2022-07-29T00:24:09;21.90;97.70
44487;DHT22;30191;50.908;6.962;2022-07-29T00:26:34;21.90;97.80
44487;DHT22;30191;50.908;6.962;2022-07-29T00:29:02;21.80;97.80
44487;DHT22;30191;50.908;6.962;2022-07-29T00:31:28;21.80;97.90
44487;DHT22;30191;50.908;6.962;2022-07-29T00:33:54;21.80;98.00
44487;DHT22;30191;50.908;6.962;2022-07-29T00:36:20;21.80;98.10
44487;DHT22;30191;50.908;6.962;2022-07-29T00:38:52;21.80;98.30
44487;DHT22;30191;50.908;6.962;2022-07-29T00:41:18;21.80;98.40
44487;DHT22;30191;50.908;6.962;2022-07-29T00:43:44;21.80;98.40
44487;DHT22;30191;50.908;6.962;2022-07-29T00:46:11;21.80;98.60
44487;DHT22;30191;50.908;6.962;2022-07-29T00:48:36;21.80;98.80
44487;DHT22;30191;50.908;6.962;2022-07-29T00:51:03;21.80;98.80
44487;DHT22;30191;50.908;6.962;2022-07-29T00:53:30;21.80;98.90
44487;DHT22;30191;50.908;6.962;2022-07-29T00:55:57;21.80;98.90
44487;DHT22;30191;50.908;6.962;2022-07-29T00:58:24;21.80;98.90
44487;DHT22;30191;50.908;6.962;2022-07-29T01:00:49;21.80;98.90
44487;DHT22;30191;50.908;6.962;2022-07-29T01:03:15;21.80;98.90
44487;DHT22;30191;50.908;6.962;2022-07-29T01:05:43;21.80;98.90
44487;DHT22;30191;50.908;6.962;2022-07-29T01:08:11;21.80;98.90
44487;DHT22;30191;50.908;6.962;2022-07-29T01:10:38;21.80;98.90
44487;DHT22;30191;50.908;6.962;2022-07-29T01:13:05;21.70;98.80
44487;DHT22;30191;50.908;6.962;2022-07-29T01:15:33;21.80;98.80
44487;DHT22;30191;50.908;6.962;2022-07-29T01:18:16;21.80;98.70
44487;DHT22;30191;50.908;6.962;2022-07-29T01:32:08;21.80;98.70
44487;DHT22;30191;50.908;6.962;2022-07-29T01:37:23;21.70;98.50
44487;DHT22;30191;50.908;6.962;2022-07-29T01:39:52;21.70;98.50
44487;DHT22;30191;50.908;6.962;2022-07-29T01:45:23;21.70;98.50
44487;DHT22;30191;50.908;6.962;2022-07-29T01:48:06;21.70;98.60
44487;DHT22;30191;50.908;6.962;2022-07-29T01:51:00;21.60;98.70
44487;DHT22;30191;50.908;6.962;2022-07-29T01:53:32;21.60;98.70
44487;DHT22;30191;50.908;6.962;2022-07-29T01:56:00;21.50;98.80
44487;DHT22;30191;50.908;6.962;2022-07-29T01:58:29;21.50;98.90
44487;DHT22;30191;50.908;6.962;2022-07-29T02:00:57;21.50;99.10
44487;DHT22;30191;50.908;6.962;2022-07-29T02:03:24;21.50;99.30
44487;DHT22;30191;50.908;6.962;2022-07-29T02:05:52;21.50;99.30
44487;DHT22;30191;50.908;6.962;2022-07-29T02:08:19;21.40;99.40
44487;DHT22;30191;50.908;6.962;2022-07-29T02:10:47;21.40;99.30
44487;DHT22;30191;50.908;6.962;2022-07-29T02:13:15;21.40;99.30
44487;DHT22;30191;50.908;6.962;2022-07-29T02:15:42;21.40;99.20
44487;DHT22;30191;50.908;6.962;2022-07-29T02:18:13;21.40;99.20
44487;DHT22;30191;50.908;6.962;2022-07-29T02:20:42;21.40;99.30
44487;DHT22;30191;50.908;6.962;2022-07-29T02:23:11;21.40;99.40
44487;DHT22;30191;50.908;6.962;2022-07-29T02:25:38;21.30;99.40
44487;DHT22;30191;50.908;6.962;2022-07-29T02:28:06;21.30;99.50
44487;DHT22;30191;50.908;6.962;2022-07-29T02:30:34;21.30;99.50
44487;DHT22;30191;50.908;6.962;2022-07-29T02:33:01;21.30;99.60
44487;DHT22;30191;50.908;6.962;2022-07-29T02:35:29;21.20;99.90
44487;DHT22;30191;50.908;6.962;2022-07-29T02:37:55;21.20;99.90
44487;DHT22;30191;50.908;6.962;2022-07-29T02:40:42;21.20;99.90
44487;DHT22;30191;50.908;6.962;2022-07-29T02:43:09;21.10;99.90
44487;DHT22;30191;50.908;6.962;2022-07-29T02:45:36;21.10;99.90
44487;DHT22;30191;50.908;6.962;2022-07-29T02:48:06;21.10;99.90
44487;DHT22;30191;50.908;6.962;2022-07-29T02:50:40;21.10;99.90
44487;DHT22;30191;50.908;6.962;2022-07-29T02:55:46;21.00;99.90
44487;DHT22;30191;50.908;6.962;2022-07-29T02:58:27;21.00;99.90
44487;DHT22;30191;50.908;6.962;2022-07-29T03:00:57;20.90;99.90
44487;DHT22;30191;50.908;6.962;2022-07-29T03:03:25;20.90;99.90
44487;DHT22;30191;50.908;6.962;2022-07-29T03:05:57;20.90;99.90
44487;DHT22;30191;50.908;6.962;2022-07-29T03:08:25;20.90;99.90
44487;DHT22;30191;50.908;6.962;2022-07-29T03:10:53;20.90;99.90
44487;DHT22;30191;50.908;6.962;2022-07-29T03:13:19;20.80;99.90
44487;DHT22;30191;50.908;6.962;2022-07-29T03:15:47;20.80;99.90
44487;DHT22;30191;50.908;6.962;2022-07-29T03:18:13;20.80;99.90
44487;DHT22;30191;50.908;6.962;2022-07-29T03:20:39;20.80;99.90
44487;DHT22;30191;50.908;6.962;2022-07-29T03:23:07;20.80;99.90
44487;DHT22;30191;50.908;6.962;2022-07-29T03:25:33;20.80;99.90
44487;DHT22;30191;50.908;6.962;2022-07-29T03:27:59;20.80;99.90
44487;DHT22;30191;50.908;6.962;2022-07-29T03:30:25;20.80;99.90
44487;DHT22;30191;50.908;6.962;2022-07-29T03:32:51;20.80;99.90
44487;DHT22;30191;50.908;6.962;2022-07-29T03:35:17;20.70;99.90
44487;DHT22;30191;50.908;6.962;2022-07-29T03:37:44;20.70;99.90
44487;DHT22;30191;50.908;6.962;2022-07-29T03:40:14;20.70;99.90
44487;DHT22;30191;50.908;6.962;2022-07-29T03:42:42;20.70;99.90
44487;DHT22;30191;50.908;6.962;2022-07-29T03:45:12;20.70;99.90
44487;DHT22;30191;50.908;6.962;2022-07-29T03:47:43;20.70;99.90
44487;DHT22;30191;50.908;6.962;2022-07-29T03:50:12;20.70;99.90
44487;DHT22;30191;50.908;6.962;2022-07-29T03:52:40;20.60;99.90
44487;DHT22;30191;50.908;6.962;2022-07-29T03:55:07;20.60;99.90
44487;DHT22;30191;50.908;6.962;2022-07-29T03:57:33;20.60;99.90
44487;DHT22;30191;50.908;6.962;2022-07-29T04:00:02;20.60;99.90
44487;DHT22;30191;50.908;6.962;2022-07-29T04:02:29;20.60;99.90
44487;DHT22;30191;50.908;6.962;2022-07-29T04:04:54;20.50;99.90
44487;DHT22;30191;50.908;6.962;2022-07-29T04:07:20;20.60;99.90
44487;DHT22;30191;50.908;6.962;2022-07-29T04:09:46;20.60;99.90
44487;DHT22;30191;50.908;6.962;2022-07-29T04:12:12;20.70;99.90
44487;DHT22;30191;50.908;6.962;2022-07-29T04:14:37;20.70;99.90
44487;DHT22;30191;50.908;6.962;2022-07-29T04:17:04;20.70;99.90
44487;DHT22;30191;50.908;6.962;2022-07-29T04:19:30;20.70;99.90
44487;DHT22;30191;50.908;6.962;2022-07-29T04:21:57;20.70;99.90
44487;DHT22;30191;50.908;6.962;2022-07-29T04:24:22;20.70;99.90
44487;DHT22;30191;50.908;6.962;2022-07-29T04:26:48;20.70;99.90
44487;DHT22;30191;50.908;6.962;2022-07-29T04:29:14;20.70;99.90
44487;DHT22;30191;50.908;6.962;2022-07-29T04:31:40;20.60;99.90
44487;DHT22;30191;50.908;6.962;2022-07-29T04:34:06;20.60;99.90
44487;DHT22;30191;50.908;6.962;2022-07-29T04:36:32;20.60;99.90
44487;DHT22;30191;50.908;6.962;2022-07-29T04:38:58;20.60;99.90
44487;DHT22;30191;50.908;6.962;2022-07-29T04:41:24;20.50;99.90
44487;DHT22;30191;50.908;6.962;2022-07-29T04:43:50;20.50;99.90
44487;DHT22;30191;50.908;6.962;2022-07-29T04:46:15;20.60;99.90
44487;DHT22;30191;50.908;6.962;2022-07-29T04:48:41;20.60;99.90
44487;DHT22;30191;50.908;6.962;2022-07-29T04:51:07;20.70;99.90
44487;DHT22;30191;50.908;6.962;2022-07-29T04:53:33;20.70;99.90
44487;DHT22;30191;50.908;6.962;2022-07-29T04:55:58;20.70;99.90
44487;DHT22;30191;50.908;6.962;2022-07-29T04:58:24;20.70;99.90
44487;DHT22;30191;50.908;6.962;2022-07-29T05:00:50;20.70;99.90
44487;DHT22;30191;50.908;6.962;2022-07-29T05:03:16;20.70;99.90
44487;DHT22;30191;50.908;6.962;2022-07-29T05:05:42;20.70;99.90
44487;DHT22;30191;50.908;6.962;2022-07-29T05:08:08;20.70;99.90
44487;DHT22;30191;50.908;6.962;2022-07-29T05:10:34;20.70;99.90
44487;DHT22;30191;50.908;6.962;2022-07-29T05:13:04;20.60;99.90
44487;DHT22;30191;50.908;6.962;2022-07-29T05:15:31;20.60;99.90
44487;DHT22;30191;50.908;6.962;2022-07-29T05:17:57;20.60;99.90
44487;DHT22;30191;50.908;6.962;2022-07-29T05:20:22;20.70;99.90
44487;DHT22;30191;50.908;6.962;2022-07-29T05:22:56;20.60;99.90
44487;DHT22;30191;50.908;6.962;2022-07-29T05:25:23;20.60;99.90
44487;DHT22;30191;50.908;6.962;2022-07-29T05:27:49;20.60;99.90
44487;DHT22;30191;50.908;6.962;2022-07-29T05:30:15;20.60;99.90
44487;DHT22;30191;50.908;6.962;2022-07-29T05:32:40;20.60;99.90
44487;DHT22;30191;50.908;6.962;2022-07-29T05:35:06;20.60;99.90
44487;DHT22;30191;50.908;6.962;2022-07-29T05:37:33;20.70;99.90
44487;DHT22;30191;50.908;6.962;2022-07-29T05:39:59;20.70;99.90
44487;DHT22;30191;50.908;6.962;2022-07-29T05:42:25;20.70;99.90
44487;DHT22;30191;50.908;6.962;2022-07-29T05:44:52;20.60;99.90
44487;DHT22;30191;50.908;6.962;2022-07-29T05:47:18;20.60;99.90
44487;DHT22;30191;50.908;6.962;2022-07-29T05:49:44;20.70;99.90
44487;DHT22;30191;50.908;6.962;2022-07-29T05:52:09;20.70;99.90
44487;DHT22;30191;50.908;6.962;2022-07-29T05:54:35;20.60;99.90
44487;DHT22;30191;50.908;6.962;2022-07-29T05:57:01;20.60;99.90
44487;DHT22;30191;50.908;6.962;2022-07-29T05:59:27;20.60;99.90
44487;DHT22;30191;50.908;6.962;2022-07-29T06:01:53;20.60;99.90
44487;DHT22;30191;50.908;6.962;2022-07-29T06:04:18;20.60;99.90
44487;DHT22;30191;50.908;6.962;2022-07-29T06:06:44;20.60;99.90
44487;DHT22;30191;50.908;6.962;2022-07-29T06:09:10;20.60;99.90
44487;DHT22;30191;50.908;6.962;2022-07-29T06:11:35;20.60;99.90
44487;DHT22;30191;50.908;6.962;2022-07-29T06:14:01;20.60;99.90
44487;DHT22;30191;50.908;6.962;2022-07-29T06:16:28;20.60;99.90
44487;DHT22;30191;50.908;6.962;2022-07-29T06:18:54;20.70;99.90
44487;DHT22;30191;50.908;6.962;2022-07-29T06:21:20;20.60;99.90
44487;DHT22;30191;50.908;6.962;2022-07-29T06:23:45;20.60;99.90
44487;DHT22;30191;50.908;6.962;2022-07-29T06:26:11;20.60;99.90
44487;DHT22;30191;50.908;6.962;2022-07-29T06:28:37;20.60;99.90
44487;DHT22;30191;50.908;6.962;2022-07-29T06:31:03;20.60;99.90
44487;DHT22;30191;50.908;6.962;2022-07-29T06:33:30;20.60;99.90
44487;DHT22;30191;50.908;6.962;2022-07-29T06:35:56;20.50;99.90
44487;DHT22;30191;50.908;6.962;2022-07-29T06:38:22;20.50;99.90
44487;DHT22;30191;50.908;6.962;2022-07-29T06:40:48;20.50;99.90
44487;DHT22;30191;50.908;6.962;2022-07-29T06:43:31;20.50;99.90
44487;DHT22;30191;50.908;6.962;2022-07-29T06:46:00;20.60;99.90
44487;DHT22;30191;50.908;6.962;2022-07-29T06:48:27;20.50;99.90
44487;DHT22;30191;50.908;6.962;2022-07-29T06:50:53;20.50;99.90
44487;DHT22;30191;50.908;6.962;2022-07-29T06:53:19;20.60;99.90
44487;DHT22;30191;50.908;6.962;2022-07-29T06:55:44;20.60;99.90
44487;DHT22;30191;50.908;6.962;2022-07-29T06:58:10;20.60;99.90
44487;DHT22;30191;50.908;6.962;2022-07-29T07:00:37;20.50;99.90
44487;DHT22;30191;50.908;6.962;2022-07-29T07:03:03;20.50;99.90
44487;DHT22;30191;50.908;6.962;2022-07-29T07:05:28;20.60;99.90
44487;DHT22;30191;50.908;6.962;2022-07-29T07:07:54;20.60;99.90
44487;DHT22;30191;50.908;6.962;2022-07-29T07:10:20;20.60;99.90
44487;DHT22;30191;50.908;6.962;2022-07-29T07:12:45;20.60;99.90
44487;DHT22;30191;50.908;6.962;2022-07-29T07:15:11;20.60;99.90
44487;DHT22;30191;50.908;6.962;2022-07-29T07:17:37;20.60;99.90
44487;DHT22;30191;50.908;6.962;2022-07-29T07:20:04;20.70;99.90
44487;DHT22;30191;50.908;6.962;2022-07-29T07:22:30;20.60;99.90
44487;DHT22;30191;50.908;6.962;2022-07-29T07:24:56;20.70;99.90
44487;DHT22;30191;50.908;6.962;2022-07-29T07:27:22;20.70;99.90
44487;DHT22;30191;50.908;6.962;2022-07-29T07:29:48;20.70;99.90
44487;DHT22;30191;50.908;6.962;2022-07-29T07:32:13;20.80;99.90
44487;DHT22;30191;50.908;6.962;2022-07-29T07:34:43;20.90;99.90
44487;DHT22;30191;50.908;6.962;2022-07-29T07:37:09;21.00;99.90
44487;DHT22;30191;50.908;6.962;2022-07-29T07:39:35;21.00;99.90
44487;DHT22;30191;50.908;6.962;2022-07-29T07:42:01;21.00;99.90
44487;DHT22;30191;50.908;6.962;2022-07-29T07:44:26;21.00;99.90
44487;DHT22;30191;50.908;6.962;2022-07-29T07:46:52;21.00;99.90
44487;DHT22;30191;50.908;6.962;2022-07-29T07:49:18;20.90;99.90
44487;DHT22;30191;50.908;6.962;2022-07-29T07:51:43;20.80;99.90
44487;DHT22;30191;50.908;6.962;2022-07-29T07:54:09;20.70;99.90
44487;DHT22;30191;50.908;6.962;2022-07-29T07:56:35;20.60;99.90
44487;DHT22;30191;50.908;6.962;2022-07-29T07:59:01;20.60;99.90
44487;DHT22;30191;50.908;6.962;2022-07-29T08:01:26;20.50;99.90
44487;DHT22;30191;50.908;6.962;2022-07-29T08:03:52;20.50;99.90
44487;DHT22;30191;50.908;6.962;2022-07-29T08:06:18;20.40;99.90
44487;DHT22;30191;50.908;6.962;2022-07-29T08:08:43;20.40;99.90
44487;DHT22;30191;50.908;6.962;2022-07-29T08:11:09;20.40;99.90
44487;DHT22;30191;50.908;6.962;2022-07-29T08:13:35;20.40;99.90
44487;DHT22;30191;50.908;6.962;2022-07-29T08:16:01;20.40;99.90
44487;DHT22;30191;50.908;6.962;2022-07-29T08:18:30;20.40;99.90
44487;DHT22;30191;50.908;6.962;2022-07-29T08:20:57;20.40;99.90
44487;DHT22;30191;50.908;6.962;2022-07-29T08:23:23;20.40;99.90
44487;DHT22;30191;50.908;6.962;2022-07-29T08:25:49;20.40;99.90
44487;DHT22;30191;50.908;6.962;2022-07-29T08:28:15;20.40;99.90
44487;DHT22;30191;50.908;6.962;2022-07-29T08:30:41;20.40;99.90
44487;DHT22;30191;50.908;6.962;2022-07-29T08:33:07;20.40;99.90
44487;DHT22;30191;50.908;6.962;2022-07-29T08:35:32;20.50;99.90
44487;DHT22;30191;50.908;6.962;2022-07-29T08:37:58;20.60;99.90
44487;DHT22;30191;50.908;6.962;2022-07-29T08:40:24;20.50;99.90
44487;DHT22;30191;50.908;6.962;2022-07-29T08:42:50;20.60;99.90
44487;DHT22;30191;50.908;6.962;2022-07-29T08:45:16;20.60;99.90
44487;DHT22;30191;50.908;6.962;2022-07-29T08:47:44;20.60;99.90
44487;DHT22;30191;50.908;6.962;2022-07-29T08:50:11;20.70;99.90
44487;DHT22;30191;50.908;6.962;2022-07-29T08:52:39;20.70;99.90
44487;DHT22;30191;50.908;6.962;2022-07-29T08:55:07;20.80;99.90
44487;DHT22;30191;50.908;6.962;2022-07-29T08:57:34;20.80;99.90
44487;DHT22;30191;50.908;6.962;2022-07-29T09:00:01;20.90;99.90
44487;DHT22;30191;50.908;6.962;2022-07-29T09:02:28;20.80;99.90
44487;DHT22;30191;50.908;6.962;2022-07-29T09:04:56;20.80;99.90
44487;DHT22;30191;50.908;6.962;2022-07-29T09:07:23;20.70;99.90
44487;DHT22;30191;50.908;6.962;2022-07-29T09:09:49;20.70;99.90
44487;DHT22;30191;50.908;6.962;2022-07-29T09:12:15;20.70;99.90
44487;DHT22;30191;50.908;6.962;2022-07-29T09:14:42;20.70;99.90
44487;DHT22;30191;50.908;6.962;2022-07-29T09:17:08;20.60;99.90
44487;DHT22;30191;50.908;6.962;2022-07-29T09:19:36;20.60;99.90
44487;DHT22;30191;50.908;6.962;2022-07-29T09:22:06;20.50;99.90
44487;DHT22;30191;50.908;6.962;2022-07-29T09:24:45;20.50;99.90
44487;DHT22;30191;50.908;6.962;2022-07-29T09:27:21;20.60;99.90
44487;DHT22;30191;50.908;6.962;2022-07-29T09:32:29;20.60;99.90
44487;DHT22;30191;50.908;6.962;2022-07-29T09:35:14;20.70;99.90
44487;DHT22;30191;50.908;6.962;2022-07-29T09:37:40;20.70;99.90
44487;DHT22;30191;50.908;6.962;2022-07-29T09:40:20;20.70;99.90
44487;DHT22;30191;50.908;6.962;2022-07-29T09:42:46;20.70;99.90
44487;DHT22;30191;50.908;6.962;2022-07-29T09:45:25;20.70;99.90
44487;DHT22;30191;50.908;6.962;2022-07-29T09:47:51;20.70;99.90
44487;DHT22;30191;50.908;6.962;2022-07-29T09:50:17;20.70;99.90
44487;DHT22;30191;50.908;6.962;2022-07-29T09:52:50;20.70;99.90
44487;DHT22;30191;50.908;6.962;2022-07-29T09:55:17;20.80;99.90
44487;DHT22;30191;50.908;6.962;2022-07-29T09:57:43;20.80;99.90
44487;DHT22;30191;50.908;6.962;2022-07-29T10:00:14;20.90;99.90
44487;DHT22;30191;50.908;6.962;2022-07-29T10:02:41;20.90;99.90
44487;DHT22;30191;50.908;6.962;2022-07-29T10:05:24;20.90;99.90
44487;DHT22;30191;50.908;6.962;2022-07-29T10:07:53;21.00;99.90
44487;DHT22;30191;50.908;6.962;2022-07-29T10:10:27;21.00;99.90
44487;DHT22;30191;50.908;6.962;2022-07-29T10:13:13;21.00;99.90
44487;DHT22;30191;50.908;6.962;2022-07-29T10:15:41;21.10;99.90
44487;DHT22;30191;50.908;6.962;2022-07-29T10:18:10;21.20;99.90
44487;DHT22;30191;50.908;6.962;2022-07-29T10:20:36;21.20;99.90
44487;DHT22;30191;50.908;6.962;2022-07-29T10:23:02;21.30;99.90
44487;DHT22;30191;50.908;6.962;2022-07-29T10:25:29;21.40;99.90
44487;DHT22;30191;50.908;6.962;2022-07-29T10:27:54;21.40;99.90
44487;DHT22;30191;50.908;6.962;2022-07-29T10:30:21;21.50;99.90
44487;DHT22;30191;50.908;6.962;2022-07-29T10:41:36;21.60;99.90
44487;DHT22;30191;50.908;6.962;2022-07-29T10:44:14;21.70;99.90
44487;DHT22;30191;50.908;6.962;2022-07-29T10:46:41;21.80;99.90
44487;DHT22;30191;50.908;6.962;2022-07-29T10:52:05;21.90;99.90
44487;DHT22;30191;50.908;6.962;2022-07-29T10:59:39;21.90;99.90
44487;DHT22;30191;50.908;6.962;2022-07-29T11:07:32;22.10;99.90
44487;DHT22;30191;50.908;6.962;2022-07-29T11:15:10;22.30;99.90
44487;DHT22;30191;50.908;6.962;2022-07-29T11:18:06;22.30;99.90
44487;DHT22;30191;50.908;6.962;2022-07-29T11:20:40;22.40;99.90
44487;DHT22;30191;50.908;6.962;2022-07-29T11:23:29;22.40;99.90
44487;DHT22;30191;50.908;6.962;2022-07-29T11:29:06;22.50;99.90
44487;DHT22;30191;50.908;6.962;2022-07-29T11:31:44;22.60;99.90
44487;DHT22;30191;50.908;6.962;2022-07-29T11:45:12;22.90;99.90
44487;DHT22;30191;50.908;6.962;2022-07-29T11:50:13;23.10;99.90
44487;DHT22;30191;50.908;6.962;2022-07-29T11:52:46;23.10;99.90
44487;DHT22;30191;50.908;6.962;2022-07-29T11:55:15;23.10;99.90
44487;DHT22;30191;50.908;6.962;2022-07-29T11:57:47;23.20;99.60
44487;DHT22;30191;50.908;6.962;2022-07-29T12:00:30;23.30;99.00
44487;DHT22;30191;50.908;6.962;2022-07-29T12:02:58;23.40;99.70
44487;DHT22;30191;50.908;6.962;2022-07-29T12:05:44;23.40;99.60
44487;DHT22;30191;50.908;6.962;2022-07-29T12:08:17;23.50;99.50
44487;DHT22;30191;50.908;6.962;2022-07-29T12:10:50;23.60;99.50
44487;DHT22;30191;50.908;6.962;2022-07-29T12:13:18;23.60;99.30
44487;DHT22;30191;50.908;6.962;2022-07-29T12:15:55;23.60;99.30
44487;DHT22;30191;50.908;6.962;2022-07-29T12:18:22;23.50;99.10
44487;DHT22;30191;50.908;6.962;2022-07-29T12:20:59;23.50;99.50
44487;DHT22;30191;50.908;6.962;2022-07-29T12:23:25;23.50;99.40
44487;DHT22;30191;50.908;6.962;2022-07-29T12:25:51;23.50;99.50
44487;DHT22;30191;50.908;6.962;2022-07-29T12:28:17;23.50;99.30
44487;DHT22;30191;50.908;6.962;2022-07-29T12:30:48;23.60;99.40
44487;DHT22;30191;50.908;6.962;2022-07-29T12:35:42;23.80;99.10
44487;DHT22;30191;50.908;6.962;2022-07-29T12:38:10;23.70;99.40
44487;DHT22;30191;50.908;6.962;2022-07-29T12:40:37;23.70;99.20
44487;DHT22;30191;50.908;6.962;2022-07-29T12:43:17;23.90;99.00
44487;DHT22;30191;50.908;6.962;2022-07-29T12:45:45;23.90;98.70
44487;DHT22;30191;50.908;6.962;2022-07-29T12:48:12;24.00;98.60
44487;DHT22;30191;50.908;6.962;2022-07-29T12:50:55;24.10;98.10
44487;DHT22;30191;50.908;6.962;2022-07-29T12:53:21;24.20;97.50
44487;DHT22;30191;50.908;6.962;2022-07-29T12:55:49;24.20;97.80
44487;DHT22;30191;50.908;6.962;2022-07-29T12:58:37;24.30;97.70
44487;DHT22;30191;50.908;6.962;2022-07-29T13:04:01;24.40;97.30
44487;DHT22;30191;50.908;6.962;2022-07-29T13:06:36;24.50;97.20
44487;DHT22;30191;50.908;6.962;2022-07-29T13:11:41;24.60;96.90
44487;DHT22;30191;50.908;6.962;2022-07-29T13:14:09;24.70;97.00
44487;DHT22;30191;50.908;6.962;2022-07-29T13:16:36;24.80;96.80
44487;DHT22;30191;50.908;6.962;2022-07-29T13:19:12;25.00;96.50
44487;DHT22;30191;50.908;6.962;2022-07-29T13:21:39;25.10;96.30
44487;DHT22;30191;50.908;6.962;2022-07-29T13:24:06;25.20;96.10
44487;DHT22;30191;50.908;6.962;2022-07-29T13:26:32;25.20;96.40
44487;DHT22;30191;50.908;6.962;2022-07-29T13:28:58;25.30;96.10
44487;DHT22;30191;50.908;6.962;2022-07-29T13:31:23;25.40;96.30
44487;DHT22;30191;50.908;6.962;2022-07-29T13:33:49;25.50;95.90
44487;DHT22;30191;50.908;6.962;2022-07-29T13:36:15;25.60;95.70
44487;DHT22;30191;50.908;6.962;2022-07-29T13:38:41;25.80;95.70
44487;DHT22;30191;50.908;6.962;2022-07-29T13:41:07;26.00;95.70
44487;DHT22;30191;50.908;6.962;2022-07-29T13:43:33;26.10;95.80
44487;DHT22;30191;50.908;6.962;2022-07-29T13:45:58;26.20;96.30
44487;DHT22;30191;50.908;6.962;2022-07-29T13:48:24;26.40;96.30
44487;DHT22;30191;50.908;6.962;2022-07-29T13:50:50;26.60;96.40
44487;DHT22;30191;50.908;6.962;2022-07-29T13:53:16;26.90;96.00
44487;DHT22;30191;50.908;6.962;2022-07-29T13:55:41;27.20;95.90
44487;DHT22;30191;50.908;6.962;2022-07-29T13:58:07;27.50;95.00
44487;DHT22;30191;50.908;6.962;2022-07-29T14:00:33;27.90;94.50
44487;DHT22;30191;50.908;6.962;2022-07-29T14:02:58;28.10;94.10
44487;DHT22;30191;50.908;6.962;2022-07-29T14:05:24;28.40;93.80
44487;DHT22;30191;50.908;6.962;2022-07-29T14:07:50;28.70;93.60
44487;DHT22;30191;50.908;6.962;2022-07-29T14:10:15;29.00;92.70
44487;DHT22;30191;50.908;6.962;2022-07-29T14:12:41;29.30;92.10
44487;DHT22;30191;50.908;6.962;2022-07-29T14:15:07;29.70;92.00
44487;DHT22;30191;50.908;6.962;2022-07-29T14:17:34;30.10;91.20
44487;DHT22;30191;50.908;6.962;2022-07-29T14:20:00;30.60;91.10
44487;DHT22;30191;50.908;6.962;2022-07-29T14:22:25;30.90;90.10
44487;DHT22;30191;50.908;6.962;2022-07-29T14:24:51;31.00;89.10
44487;DHT22;30191;50.908;6.962;2022-07-29T14:27:17;31.10;87.80
44487;DHT22;30191;50.908;6.962;2022-07-29T14:29:43;30.90;87.60
44487;DHT22;30191;50.908;6.962;2022-07-29T14:32:09;30.50;87.70
44487;DHT22;30191;50.908;6.962;2022-07-29T14:34:36;30.20;87.40
44487;DHT22;30191;50.908;6.962;2022-07-29T14:37:03;29.80;88.00
44487;DHT22;30191;50.908;6.962;2022-07-29T14:39:31;29.30;88.80
44487;DHT22;30191;50.908;6.962;2022-07-29T14:41:56;29.00;89.40
44487;DHT22;30191;50.908;6.962;2022-07-29T14:44:22;28.80;90.20
44487;DHT22;30191;50.908;6.962;2022-07-29T14:46:49;28.90;90.70
44487;DHT22;30191;50.908;6.962;2022-07-29T14:49:14;29.20;90.70
44487;DHT22;30191;50.908;6.962;2022-07-29T14:51:40;29.60;90.60
44487;DHT22;30191;50.908;6.962;2022-07-29T14:54:06;29.80;90.40
44487;DHT22;30191;50.908;6.962;2022-07-29T14:56:32;30.10;89.70
44487;DHT22;30191;50.908;6.962;2022-07-29T14:58:58;30.30;88.80
44487;DHT22;30191;50.908;6.962;2022-07-29T15:01:24;30.50;88.80
44487;DHT22;30191;50.908;6.962;2022-07-29T15:03:50;30.50;88.10
44487;DHT22;30191;50.908;6.962;2022-07-29T15:06:16;30.50;87.40
44487;DHT22;30191;50.908;6.962;2022-07-29T15:08:41;30.20;87.70
44487;DHT22;30191;50.908;6.962;2022-07-29T15:11:07;30.30;88.30
44487;DHT22;30191;50.908;6.962;2022-07-29T15:13:34;30.30;87.40
44487;DHT22;30191;50.908;6.962;2022-07-29T15:15:59;30.30;87.00
44487;DHT22;30191;50.908;6.962;2022-07-29T15:18:25;30.20;87.30
44487;DHT22;30191;50.908;6.962;2022-07-29T15:20:50;30.20;86.90
44487;DHT22;30191;50.908;6.962;2022-07-29T15:23:16;30.20;87.00
44487;DHT22;30191;50.908;6.962;2022-07-29T15:25:42;30.20;86.10
44487;DHT22;30191;50.908;6.962;2022-07-29T15:28:07;30.20;86.50
44487;DHT22;30191;50.908;6.962;2022-07-29T15:30:34;30.30;86.50
44487;DHT22;30191;50.908;6.962;2022-07-29T15:33:06;30.30;85.50
44487;DHT22;30191;50.908;6.962;2022-07-29T15:35:32;30.20;85.90
44487;DHT22;30191;50.908;6.962;2022-07-29T15:37:58;30.20;85.30
44487;DHT22;30191;50.908;6.962;2022-07-29T15:40:24;30.10;85.60
44487;DHT22;30191;50.908;6.962;2022-07-29T15:42:51;30.00;83.90
44487;DHT22;30191;50.908;6.962;2022-07-29T15:45:16;30.00;83.90
44487;DHT22;30191;50.908;6.962;2022-07-29T15:47:42;29.90;84.80
44487;DHT22;30191;50.908;6.962;2022-07-29T15:50:08;29.90;85.80
44487;DHT22;30191;50.908;6.962;2022-07-29T15:52:39;30.00;85.50
44487;DHT22;30191;50.908;6.962;2022-07-29T15:55:05;29.90;85.30
44487;DHT22;30191;50.908;6.962;2022-07-29T15:57:30;29.90;84.70
44487;DHT22;30191;50.908;6.962;2022-07-29T15:59:56;29.70;85.10
44487;DHT22;30191;50.908;6.962;2022-07-29T16:02:22;29.50;85.00
44487;DHT22;30191;50.908;6.962;2022-07-29T16:04:47;29.30;84.90
44487;DHT22;30191;50.908;6.962;2022-07-29T16:07:14;29.10;84.80
44487;DHT22;30191;50.908;6.962;2022-07-29T16:09:40;28.90;86.40
44487;DHT22;30191;50.908;6.962;2022-07-29T16:12:06;28.70;87.10
44487;DHT22;30191;50.908;6.962;2022-07-29T16:14:33;28.50;88.60
44487;DHT22;30191;50.908;6.962;2022-07-29T16:16:59;28.30;87.50
44487;DHT22;30191;50.908;6.962;2022-07-29T16:19:28;28.20;87.50
44487;DHT22;30191;50.908;6.962;2022-07-29T16:21:54;28.10;87.10
44487;DHT22;30191;50.908;6.962;2022-07-29T16:24:21;28.10;87.60
44487;DHT22;30191;50.908;6.962;2022-07-29T16:26:48;28.00;87.80
44487;DHT22;30191;50.908;6.962;2022-07-29T16:29:14;27.90;87.50
44487;DHT22;30191;50.908;6.962;2022-07-29T16:31:42;27.60;89.80
44487;DHT22;30191;50.908;6.962;2022-07-29T16:34:08;27.30;87.90
44487;DHT22;30191;50.908;6.962;2022-07-29T16:36:33;27.10;89.20
44487;DHT22;30191;50.908;6.962;2022-07-29T16:38:59;27.00;87.60
44487;DHT22;30191;50.908;6.962;2022-07-29T16:41:25;27.00;87.40
44487;DHT22;30191;50.908;6.962;2022-07-29T16:43:51;26.90;90.00
44487;DHT22;30191;50.908;6.962;2022-07-29T16:46:16;26.90;87.20
44487;DHT22;30191;50.908;6.962;2022-07-29T16:48:42;26.90;86.40